sensor_id;sensor_type;location;lat;lon;timestamp;P1;durP1;ratioP1;P2;durP2;ratioP2
69703;SDS011;56967;43.538;-5.646;2023-01-01T11:05:23;14.23;;;3.63;;
69703;SDS011;56967;43.538;-5.646;2023-01-01T11:07:48;14.90;;;3.90;;
69703;SDS011;56967;43.538;-5.646;2023-01-01T11:10:18;13.10;;;3.85;;
69703;SDS011;56967;43.538;-5.646;2023-01-01T11:12:46;21.42;;;4.32;;
69703;SDS011;56967;43.538;-5.646;2023-01-01T11:18:05;24.60;;;4.85;;
69703;SDS011;56967;43.538;-5.646;2023-01-01T11:20:37;16.48;;;4.20;;
69703;SDS011;56967;43.538;-5.646;2023-01-01T11:23:23;13.13;;;3.97;;
69703;SDS011;56967;43.538;-5.646;2023-01-01T11:26:01;20.48;;;4.40;;
69703;SDS011;56967;43.538;-5.646;2023-01-01T11:28:27;16.75;;;3.92;;
69703;SDS011;56967;43.538;-5.646;2023-01-01T11:33:30;17.75;;;3.47;;
69703;SDS011;56967;43.538;-5.646;2023-01-01T11:35:58;13.35;;;3.13;;
69703;SDS011;56967;43.538;-5.646;2023-01-01T11:38:24;11.95;;;3.25;;
69703;SDS011;56967;43.538;-5.646;2023-01-01T11:40:51;19.33;;;3.13;;
69703;SDS011;56967;43.538;-5.646;2023-01-01T11:43:22;16.42;;;3.38;;
69703;SDS011;56967;43.538;-5.646;2023-01-01T11:45:51;12.68;;;2.55;;
69703;SDS011;56967;43.538;-5.646;2023-01-01T11:51:00;9.38;;;2.20;;
69703;SDS011;56967;43.538;-5.646;2023-01-01T11:53:40;14.63;;;2.00;;
69703;SDS011;56967;43.538;-5.646;2023-01-01T11:56:16;12.00;;;2.25;;
69703;SDS011;56967;43.538;-5.646;2023-01-01T11:58:49;9.75;;;2.05;;
69703;SDS011;56967;43.538;-5.646;2023-01-01T12:11:49;13.52;;;3.33;;
69703;SDS011;56967;43.538;-5.646;2023-01-01T12:17:25;14.77;;;2.70;;
69703;SDS011;56967;43.538;-5.646;2023-01-01T12:22:49;14.75;;;2.83;;
69703;SDS011;56967;43.538;-5.646;2023-01-01T12:25:15;15.25;;;2.45;;
69703;SDS011;56967;43.538;-5.646;2023-01-01T12:38:03;7.00;;;2.00;;
69703;SDS011;56967;43.538;-5.646;2023-01-01T12:40:54;11.88;;;2.03;;
69703;SDS011;56967;43.538;-5.646;2023-01-01T12:43:28;8.93;;;1.88;;
69703;SDS011;56967;43.538;-5.646;2023-01-01T12:54:51;7.60;;;1.90;;
69703;SDS011;56967;43.538;-5.646;2023-01-01T13:00:13;8.93;;;2.47;;
69703;SDS011;56967;43.538;-5.646;2023-01-01T13:03:00;9.02;;;2.50;;
69703;SDS011;56967;43.538;-5.646;2023-01-01T13:05:42;10.57;;;2.08;;
69703;SDS011;56967;43.538;-5.646;2023-01-01T13:08:09;14.55;;;2.80;;
69703;SDS011;56967;43.538;-5.646;2023-01-01T13:13:05;12.55;;;4.05;;
69703;SDS011;56967;43.538;-5.646;2023-01-01T13:18:05;11.52;;;3.78;;
69703;SDS011;56967;43.538;-5.646;2023-01-01T13:20:43;9.63;;;3.50;;
69703;SDS011;56967;43.538;-5.646;2023-01-01T13:31:43;10.90;;;4.20;;
69703;SDS011;56967;43.538;-5.646;2023-01-01T13:50:44;14.88;;;6.00;;
69703;SDS011;56967;43.538;-5.646;2023-01-01T14:02:15;21.95;;;4.55;;
69703;SDS011;56967;43.538;-5.646;2023-01-01T14:04:25;17.27;;;4.22;;
69703;SDS011;56967;43.538;-5.646;2023-01-01T14:06:56;18.23;;;4.30;;
69703;SDS011;56967;43.538;-5.646;2023-01-01T14:09:28;13.68;;;4.30;;
69703;SDS011;56967;43.538;-5.646;2023-01-01T14:11:54;18.33;;;4.55;;
69703;SDS011;56967;43.538;-5.646;2023-01-01T14:14:24;14.20;;;4.43;;
69703;SDS011;56967;43.538;-5.646;2023-01-01T14:16:52;11.27;;;3.88;;
69703;SDS011;56967;43.538;-5.646;2023-01-01T14:19:22;9.95;;;3.70;;
69703;SDS011;56967;43.538;-5.646;2023-01-01T14:21:48;14.20;;;4.07;;
69703;SDS011;56967;43.538;-5.646;2023-01-01T14:24:16;19.52;;;4.95;;
69703;SDS011;56967;43.538;-5.646;2023-01-01T14:26:44;20.45;;;5.40;;
69703;SDS011;56967;43.538;-5.646;2023-01-01T14:29:21;18.10;;;4.80;;
69703;SDS011;56967;43.538;-5.646;2023-01-01T14:31:53;16.08;;;4.03;;
69703;SDS011;56967;43.538;-5.646;2023-01-01T14:34:28;24.60;;;5.13;;
69703;SDS011;56967;43.538;-5.646;2023-01-01T14:36:56;29.67;;;5.22;;
69703;SDS011;56967;43.538;-5.646;2023-01-01T14:39:24;25.38;;;3.90;;
69703;SDS011;56967;43.538;-5.646;2023-01-01T14:41:56;9.77;;;2.38;;
69703;SDS011;56967;43.538;-5.646;2023-01-01T14:44:32;11.65;;;2.80;;
69703;SDS011;56967;43.538;-5.646;2023-01-01T14:52:28;17.80;;;3.53;;
69703;SDS011;56967;43.538;-5.646;2023-01-01T14:54:48;33.83;;;3.97;;
69703;SDS011;56967;43.538;-5.646;2023-01-01T14:57:15;17.88;;;3.13;;
69703;SDS011;56967;43.538;-5.646;2023-01-01T14:59:45;22.02;;;3.67;;
69703;SDS011;56967;43.538;-5.646;2023-01-01T15:02:14;21.05;;;3.97;;
69703;SDS011;56967;43.538;-5.646;2023-01-01T15:04:41;17.73;;;3.50;;
69703;SDS011;56967;43.538;-5.646;2023-01-01T15:07:21;19.35;;;3.97;;
69703;SDS011;56967;43.538;-5.646;2023-01-01T15:09:51;21.35;;;3.78;;
69703;SDS011;56967;43.538;-5.646;2023-01-01T15:12:18;17.40;;;4.13;;
69703;SDS011;56967;43.538;-5.646;2023-01-01T15:14:46;18.13;;;3.78;;
69703;SDS011;56967;43.538;-5.646;2023-01-01T15:17:14;10.95;;;3.03;;
69703;SDS011;56967;43.538;-5.646;2023-01-01T15:19:42;15.52;;;3.60;;
69703;SDS011;56967;43.538;-5.646;2023-01-01T15:22:09;20.90;;;3.60;;
69703;SDS011;56967;43.538;-5.646;2023-01-01T15:24:43;9.85;;;2.45;;
69703;SDS011;56967;43.538;-5.646;2023-01-01T15:27:16;13.50;;;2.63;;
69703;SDS011;56967;43.538;-5.646;2023-01-01T15:29:48;11.10;;;2.05;;
69703;SDS011;56967;43.538;-5.646;2023-01-01T15:32:14;9.90;;;1.70;;
69703;SDS011;56967;43.538;-5.646;2023-01-01T15:34:51;5.40;;;1.98;;
69703;SDS011;56967;43.538;-5.646;2023-01-01T15:37:18;15.93;;;6.60;;
69703;SDS011;56967;43.538;-5.646;2023-01-01T15:39:51;6.32;;;2.92;;
69703;SDS011;56967;43.538;-5.646;2023-01-01T15:42:36;6.13;;;1.83;;
69703;SDS011;56967;43.538;-5.646;2023-01-01T15:47:48;4.78;;;1.17;;
69703;SDS011;56967;43.538;-5.646;2023-01-01T15:52:49;10.35;;;1.40;;
69703;SDS011;56967;43.538;-5.646;2023-01-01T15:55:17;6.68;;;1.40;;
69703;SDS011;56967;43.538;-5.646;2023-01-01T15:57:44;7.63;;;1.25;;
69703;SDS011;56967;43.538;-5.646;2023-01-01T16:00:17;5.82;;;1.20;;
69703;SDS011;56967;43.538;-5.646;2023-01-01T16:02:43;9.23;;;1.88;;
69703;SDS011;56967;43.538;-5.646;2023-01-01T16:05:15;5.30;;;1.50;;
69703;SDS011;56967;43.538;-5.646;2023-01-01T16:07:47;6.63;;;1.20;;
69703;SDS011;56967;43.538;-5.646;2023-01-01T16:10:30;5.68;;;1.20;;
69703;SDS011;56967;43.538;-5.646;2023-01-01T16:12:57;6.47;;;1.27;;
69703;SDS011;56967;43.538;-5.646;2023-01-01T16:15:23;5.35;;;1.10;;
69703;SDS011;56967;43.538;-5.646;2023-01-01T16:17:49;4.38;;;0.90;;
69703;SDS011;56967;43.538;-5.646;2023-01-01T16:20:16;7.10;;;1.10;;
69703;SDS011;56967;43.538;-5.646;2023-01-01T16:22:43;2.80;;;0.90;;
69703;SDS011;56967;43.538;-5.646;2023-01-01T16:25:15;8.13;;;1.55;;
69703;SDS011;56967;43.538;-5.646;2023-01-01T16:27:45;5.05;;;1.10;;
69703;SDS011;56967;43.538;-5.646;2023-01-01T16:30:11;8.75;;;2.08;;
69703;SDS011;56967;43.538;-5.646;2023-01-01T16:32:38;9.32;;;1.17;;
69703;SDS011;56967;43.538;-5.646;2023-01-01T16:35:04;6.63;;;2.58;;
69703;SDS011;56967;43.538;-5.646;2023-01-01T16:37:31;4.30;;;1.10;;
69703;SDS011;56967;43.538;-5.646;2023-01-01T16:39:57;3.40;;;1.00;;
69703;SDS011;56967;43.538;-5.646;2023-01-01T16:42:22;4.28;;;1.10;;
69703;SDS011;56967;43.538;-5.646;2023-01-01T16:44:48;3.17;;;0.82;;
69703;SDS011;56967;43.538;-5.646;2023-01-01T16:47:15;2.72;;;0.85;;
69703;SDS011;56967;43.538;-5.646;2023-01-01T16:49:41;4.47;;;0.90;;
69703;SDS011;56967;43.538;-5.646;2023-01-01T16:52:06;3.85;;;1.30;;
69703;SDS011;56967;43.538;-5.646;2023-01-01T16:54:32;4.97;;;1.13;;
69703;SDS011;56967;43.538;-5.646;2023-01-01T16:56:58;2.85;;;0.90;;
69703;SDS011;56967;43.538;-5.646;2023-01-01T16:59:24;4.68;;;0.90;;
69703;SDS011;56967;43.538;-5.646;2023-01-01T17:01:49;4.22;;;1.23;;
69703;SDS011;56967;43.538;-5.646;2023-01-01T17:04:15;2.67;;;1.27;;
69703;SDS011;56967;43.538;-5.646;2023-01-01T17:06:40;2.40;;;0.98;;
69703;SDS011;56967;43.538;-5.646;2023-01-01T17:09:06;4.22;;;1.27;;
69703;SDS011;56967;43.538;-5.646;2023-01-01T17:11:32;2.95;;;1.00;;
69703;SDS011;56967;43.538;-5.646;2023-01-01T17:13:58;7.05;;;1.70;;
69703;SDS011;56967;43.538;-5.646;2023-01-01T17:16:24;4.93;;;1.90;;
69703;SDS011;56967;43.538;-5.646;2023-01-01T17:18:53;6.78;;;1.80;;
69703;SDS011;56967;43.538;-5.646;2023-01-01T17:21:19;8.70;;;2.25;;
69703;SDS011;56967;43.538;-5.646;2023-01-01T17:23:45;7.45;;;2.63;;
69703;SDS011;56967;43.538;-5.646;2023-01-01T17:28:39;11.82;;;4.63;;
69703;SDS011;56967;43.538;-5.646;2023-01-01T17:31:06;6.82;;;3.10;;
69703;SDS011;56967;43.538;-5.646;2023-01-01T17:33:34;10.82;;;4.70;;
69703;SDS011;56967;43.538;-5.646;2023-01-01T17:36:00;16.48;;;7.15;;
69703;SDS011;56967;43.538;-5.646;2023-01-01T17:38:25;8.85;;;4.47;;
69703;SDS011;56967;43.538;-5.646;2023-01-01T17:40:51;4.70;;;2.42;;
69703;SDS011;56967;43.538;-5.646;2023-01-01T17:43:17;3.63;;;1.40;;
69703;SDS011;56967;43.538;-5.646;2023-01-01T17:45:42;5.65;;;1.83;;
69703;SDS011;56967;43.538;-5.646;2023-01-01T17:48:08;6.05;;;1.60;;
69703;SDS011;56967;43.538;-5.646;2023-01-01T17:50:34;3.67;;;0.85;;
69703;SDS011;56967;43.538;-5.646;2023-01-01T17:52:59;3.30;;;1.40;;
69703;SDS011;56967;43.538;-5.646;2023-01-01T17:55:25;6.28;;;1.20;;
69703;SDS011;56967;43.538;-5.646;2023-01-01T17:57:50;5.15;;;1.50;;
69703;SDS011;56967;43.538;-5.646;2023-01-01T18:00:16;4.15;;;1.05;;
69703;SDS011;56967;43.538;-5.646;2023-01-01T18:02:44;4.28;;;1.77;;
69703;SDS011;56967;43.538;-5.646;2023-01-01T18:05:10;2.47;;;1.13;;
69703;SDS011;56967;43.538;-5.646;2023-01-01T18:07:35;2.88;;;1.20;;
69703;SDS011;56967;43.538;-5.646;2023-01-01T18:10:01;3.67;;;0.95;;
69703;SDS011;56967;43.538;-5.646;2023-01-01T18:12:27;4.38;;;1.20;;
69703;SDS011;56967;43.538;-5.646;2023-01-01T18:14:52;8.30;;;1.52;;
69703;SDS011;56967;43.538;-5.646;2023-01-01T18:17:18;3.40;;;1.02;;
69703;SDS011;56967;43.538;-5.646;2023-01-01T18:19:43;3.65;;;1.40;;
69703;SDS011;56967;43.538;-5.646;2023-01-01T18:22:09;4.85;;;1.10;;
69703;SDS011;56967;43.538;-5.646;2023-01-01T18:24:37;6.90;;;2.38;;
69703;SDS011;56967;43.538;-5.646;2023-01-01T18:27:02;3.65;;;1.80;;
69703;SDS011;56967;43.538;-5.646;2023-01-01T18:29:28;3.70;;;1.60;;
69703;SDS011;56967;43.538;-5.646;2023-01-01T18:31:54;6.68;;;3.97;;
69703;SDS011;56967;43.538;-5.646;2023-01-01T18:34:19;5.60;;;1.65;;
69703;SDS011;56967;43.538;-5.646;2023-01-01T18:36:45;2.22;;;1.08;;
69703;SDS011;56967;43.538;-5.646;2023-01-01T18:44:17;3.40;;;2.10;;
69703;SDS011;56967;43.538;-5.646;2023-01-01T18:46:48;7.15;;;1.60;;
69703;SDS011;56967;43.538;-5.646;2023-01-01T18:49:26;6.05;;;1.20;;
69703;SDS011;56967;43.538;-5.646;2023-01-01T18:54:29;2.53;;;1.08;;
69703;SDS011;56967;43.538;-5.646;2023-01-01T18:57:00;4.72;;;1.30;;
69703;SDS011;56967;43.538;-5.646;2023-01-01T18:59:30;3.63;;;1.40;;
69703;SDS011;56967;43.538;-5.646;2023-01-01T19:01:56;3.53;;;1.60;;
69703;SDS011;56967;43.538;-5.646;2023-01-01T19:04:22;4.22;;;1.50;;
69703;SDS011;56967;43.538;-5.646;2023-01-01T19:06:47;2.40;;;1.30;;
69703;SDS011;56967;43.538;-5.646;2023-01-01T19:09:20;3.17;;;1.17;;
69703;SDS011;56967;43.538;-5.646;2023-01-01T19:11:52;7.00;;;1.67;;
69703;SDS011;56967;43.538;-5.646;2023-01-01T19:14:22;3.45;;;1.25;;
69703;SDS011;56967;43.538;-5.646;2023-01-01T19:16:50;3.72;;;0.80;;
69703;SDS011;56967;43.538;-5.646;2023-01-01T19:19:20;3.83;;;1.17;;
69703;SDS011;56967;43.538;-5.646;2023-01-01T19:21:48;3.83;;;1.50;;
69703;SDS011;56967;43.538;-5.646;2023-01-01T19:24:17;4.43;;;1.20;;
69703;SDS011;56967;43.538;-5.646;2023-01-01T19:26:46;4.05;;;1.23;;
69703;SDS011;56967;43.538;-5.646;2023-01-01T19:31:41;2.60;;;1.40;;
69703;SDS011;56967;43.538;-5.646;2023-01-01T19:34:07;7.45;;;1.42;;
69703;SDS011;56967;43.538;-5.646;2023-01-01T19:36:33;5.78;;;1.20;;
69703;SDS011;56967;43.538;-5.646;2023-01-01T19:38:59;4.25;;;1.30;;
69703;SDS011;56967;43.538;-5.646;2023-01-01T19:41:24;5.85;;;1.20;;
69703;SDS011;56967;43.538;-5.646;2023-01-01T19:43:50;3.67;;;1.25;;
69703;SDS011;56967;43.538;-5.646;2023-01-01T19:46:15;3.40;;;1.45;;
69703;SDS011;56967;43.538;-5.646;2023-01-01T19:48:41;2.83;;;1.10;;
69703;SDS011;56967;43.538;-5.646;2023-01-01T19:51:06;2.50;;;1.00;;
69703;SDS011;56967;43.538;-5.646;2023-01-01T19:53:32;4.75;;;1.70;;
69703;SDS011;56967;43.538;-5.646;2023-01-01T19:55:57;8.25;;;1.92;;
69703;SDS011;56967;43.538;-5.646;2023-01-01T19:58:23;5.35;;;1.58;;
69703;SDS011;56967;43.538;-5.646;2023-01-01T20:00:49;8.43;;;1.60;;
69703;SDS011;56967;43.538;-5.646;2023-01-01T20:03:14;8.32;;;1.90;;
69703;SDS011;56967;43.538;-5.646;2023-01-01T20:05:40;10.25;;;2.13;;
69703;SDS011;56967;43.538;-5.646;2023-01-01T20:08:06;6.80;;;1.98;;
69703;SDS011;56967;43.538;-5.646;2023-01-01T20:10:32;5.80;;;2.10;;
69703;SDS011;56967;43.538;-5.646;2023-01-01T20:12:57;6.63;;;2.38;;
69703;SDS011;56967;43.538;-5.646;2023-01-01T20:15:23;5.90;;;1.90;;
69703;SDS011;56967;43.538;-5.646;2023-01-01T20:17:49;11.77;;;2.00;;
69703;SDS011;56967;43.538;-5.646;2023-01-01T20:20:15;7.10;;;3.50;;
69703;SDS011;56967;43.538;-5.646;2023-01-01T20:22:40;7.63;;;1.85;;
69703;SDS011;56967;43.538;-5.646;2023-01-01T20:25:06;6.85;;;2.33;;
69703;SDS011;56967;43.538;-5.646;2023-01-01T20:27:32;9.88;;;2.17;;
69703;SDS011;56967;43.538;-5.646;2023-01-01T20:29:58;6.55;;;1.90;;
69703;SDS011;56967;43.538;-5.646;2023-01-01T20:32:24;3.67;;;1.80;;
69703;SDS011;56967;43.538;-5.646;2023-01-01T20:34:51;9.85;;;2.65;;
69703;SDS011;56967;43.538;-5.646;2023-01-01T20:37:17;5.25;;;2.40;;
69703;SDS011;56967;43.538;-5.646;2023-01-01T20:40:01;6.60;;;2.55;;
69703;SDS011;56967;43.538;-5.646;2023-01-01T20:42:30;7.75;;;2.67;;
69703;SDS011;56967;43.538;-5.646;2023-01-01T20:44:56;3.58;;;2.17;;
69703;SDS011;56967;43.538;-5.646;2023-01-01T20:47:21;4.93;;;2.20;;
69703;SDS011;56967;43.538;-5.646;2023-01-01T20:49:47;3.97;;;2.15;;
69703;SDS011;56967;43.538;-5.646;2023-01-01T20:52:12;5.28;;;2.60;;
69703;SDS011;56967;43.538;-5.646;2023-01-01T20:54:38;4.10;;;2.40;;
69703;SDS011;56967;43.538;-5.646;2023-01-01T20:57:03;4.70;;;2.17;;
69703;SDS011;56967;43.538;-5.646;2023-01-01T20:59:29;7.53;;;2.08;;
69703;SDS011;56967;43.538;-5.646;2023-01-01T21:01:55;4.32;;;1.75;;
69703;SDS011;56967;43.538;-5.646;2023-01-01T21:04:21;4.95;;;1.70;;
69703;SDS011;56967;43.538;-5.646;2023-01-01T21:06:46;4.63;;;1.88;;
69703;SDS011;56967;43.538;-5.646;2023-01-01T21:09:12;3.80;;;1.58;;
69703;SDS011;56967;43.538;-5.646;2023-01-01T21:11:37;6.55;;;1.25;;
69703;SDS011;56967;43.538;-5.646;2023-01-01T21:14:03;4.70;;;1.27;;
69703;SDS011;56967;43.538;-5.646;2023-01-01T21:16:35;2.83;;;1.20;;
69703;SDS011;56967;43.538;-5.646;2023-01-01T21:19:03;3.03;;;1.48;;
69703;SDS011;56967;43.538;-5.646;2023-01-01T21:21:34;3.00;;;1.30;;
69703;SDS011;56967;43.538;-5.646;2023-01-01T21:24:25;3.05;;;0.95;;
69703;SDS011;56967;43.538;-5.646;2023-01-01T21:26:54;3.25;;;1.10;;
69703;SDS011;56967;43.538;-5.646;2023-01-01T21:29:26;2.80;;;1.10;;
69703;SDS011;56967;43.538;-5.646;2023-01-01T21:31:56;5.30;;;1.08;;
69703;SDS011;56967;43.538;-5.646;2023-01-01T21:34:38;4.35;;;1.38;;
69703;SDS011;56967;43.538;-5.646;2023-01-01T21:37:22;4.15;;;1.27;;
69703;SDS011;56967;43.538;-5.646;2023-01-01T21:49:28;2.75;;;1.00;;
69703;SDS011;56967;43.538;-5.646;2023-01-01T21:51:46;2.30;;;1.10;;
69703;SDS011;56967;43.538;-5.646;2023-01-01T21:54:23;2.85;;;1.17;;
69703;SDS011;56967;43.538;-5.646;2023-01-01T21:56:57;3.92;;;1.17;;
69703;SDS011;56967;43.538;-5.646;2023-01-01T21:59:38;3.72;;;1.15;;
69703;SDS011;56967;43.538;-5.646;2023-01-01T22:04:40;3.50;;;1.02;;
69703;SDS011;56967;43.538;-5.646;2023-01-01T22:07:18;3.72;;;1.17;;
69703;SDS011;56967;43.538;-5.646;2023-01-01T22:09:49;3.55;;;1.38;;
69703;SDS011;56967;43.538;-5.646;2023-01-01T22:12:22;3.15;;;1.13;;
69703;SDS011;56967;43.538;-5.646;2023-01-01T22:14:52;5.43;;;1.27;;
69703;SDS011;56967;43.538;-5.646;2023-01-01T22:17:22;3.55;;;1.13;;
69703;SDS011;56967;43.538;-5.646;2023-01-01T22:19:51;3.40;;;1.20;;
69703;SDS011;56967;43.538;-5.646;2023-01-01T22:22:18;5.47;;;1.40;;
69703;SDS011;56967;43.538;-5.646;2023-01-01T22:24:52;3.63;;;1.20;;
69703;SDS011;56967;43.538;-5.646;2023-01-01T22:27:28;2.17;;;1.05;;
69703;SDS011;56967;43.538;-5.646;2023-01-01T22:29:55;2.15;;;1.00;;
69703;SDS011;56967;43.538;-5.646;2023-01-01T22:32:50;2.08;;;1.38;;
69703;SDS011;56967;43.538;-5.646;2023-01-01T22:35:26;3.63;;;1.10;;
69703;SDS011;56967;43.538;-5.646;2023-01-01T22:37:53;3.95;;;1.38;;
69703;SDS011;56967;43.538;-5.646;2023-01-01T22:42:58;3.15;;;1.30;;
69703;SDS011;56967;43.538;-5.646;2023-01-01T22:45:26;4.38;;;1.63;;
69703;SDS011;56967;43.538;-5.646;2023-01-01T22:47:53;4.63;;;1.40;;
69703;SDS011;56967;43.538;-5.646;2023-01-01T22:50:22;5.32;;;1.65;;
69703;SDS011;56967;43.538;-5.646;2023-01-01T22:52:50;5.43;;;1.98;;
69703;SDS011;56967;43.538;-5.646;2023-01-01T22:55:15;10.98;;;1.90;;
69703;SDS011;56967;43.538;-5.646;2023-01-01T22:57:41;7.18;;;1.85;;
69703;SDS011;56967;43.538;-5.646;2023-01-01T23:00:07;10.25;;;2.30;;
69703;SDS011;56967;43.538;-5.646;2023-01-01T23:02:35;11.68;;;1.90;;
69703;SDS011;56967;43.538;-5.646;2023-01-01T23:05:00;4.95;;;2.05;;
69703;SDS011;56967;43.538;-5.646;2023-01-01T23:07:26;6.88;;;1.60;;
69703;SDS011;56967;43.538;-5.646;2023-01-01T23:09:52;7.88;;;1.40;;
69703;SDS011;56967;43.538;-5.646;2023-01-01T23:12:22;5.68;;;1.55;;
69703;SDS011;56967;43.538;-5.646;2023-01-01T23:14:48;7.05;;;1.48;;
69703;SDS011;56967;43.538;-5.646;2023-01-01T23:17:31;5.45;;;1.50;;
69703;SDS011;56967;43.538;-5.646;2023-01-01T23:19:57;6.20;;;1.60;;
69703;SDS011;56967;43.538;-5.646;2023-01-01T23:22:23;7.10;;;1.70;;
69703;SDS011;56967;43.538;-5.646;2023-01-01T23:24:50;9.20;;;1.60;;
69703;SDS011;56967;43.538;-5.646;2023-01-01T23:27:17;5.18;;;1.83;;
69703;SDS011;56967;43.538;-5.646;2023-01-01T23:29:43;5.85;;;1.65;;
69703;SDS011;56967;43.538;-5.646;2023-01-01T23:32:12;5.05;;;1.70;;
69703;SDS011;56967;43.538;-5.646;2023-01-01T23:34:39;4.70;;;1.40;;
69703;SDS011;56967;43.538;-5.646;2023-01-01T23:37:06;2.78;;;1.10;;
69703;SDS011;56967;43.538;-5.646;2023-01-01T23:39:33;2.85;;;1.00;;
69703;SDS011;56967;43.538;-5.646;2023-01-01T23:41:58;2.90;;;0.85;;
69703;SDS011;56967;43.538;-5.646;2023-01-01T23:44:24;2.28;;;1.10;;
69703;SDS011;56967;43.538;-5.646;2023-01-01T23:46:49;2.75;;;1.00;;
69703;SDS011;56967;43.538;-5.646;2023-01-01T23:49:16;2.92;;;1.00;;
69703;SDS011;56967;43.538;-5.646;2023-01-01T23:51:42;2.33;;;1.05;;
69703;SDS011;56967;43.538;-5.646;2023-01-01T23:54:08;2.38;;;1.00;;
69703;SDS011;56967;43.538;-5.646;2023-01-01T23:56:34;2.17;;;0.70;;
69703;SDS011;56967;43.538;-5.646;2023-01-01T23:58:59;1.95;;;1.20;;
